sensor_id;sensor_type;location;lat;lon;timestamp;pressure;altitude;pressure_sealevel;temperature;humidity
11114;BME280;5610;52.154;9.198;2022-07-15T00:02:39;101140.84;;;17.42;100.00
11114;BME280;5610;52.154;9.198;2022-07-15T00:05:25;101134.50;;;17.32;100.00
11114;BME280;5610;52.154;9.198;2022-07-15T00:08:10;101138.53;;;17.26;100.00
11114;BME280;5610;52.154;9.198;2022-07-15T00:10:57;101130.25;;;17.18;100.00
11114;BME280;5610;52.154;9.198;2022-07-15T00:13:43;101137.84;;;17.13;100.00
11114;BME280;5610;52.154;9.198;2022-07-15T00:16:28;101133.94;;;17.06;100.00
11114;BME280;5610;52.154;9.198;2022-07-15T00:19:13;101133.94;;;16.94;100.00
11114;BME280;5610;52.154;9.198;2022-07-15T00:21:59;101140.09;;;16.85;100.00
11114;BME280;5610;52.154;9.198;2022-07-15T00:24:44;101134.19;;;16.80;100.00
11114;BME280;5610;52.154;9.198;2022-07-15T00:27:31;101132.84;;;16.74;100.00
11114;BME280;5610;52.154;9.198;2022-07-15T00:30:16;101128.03;;;16.67;100.00
11114;BME280;5610;52.154;9.198;2022-07-15T00:33:02;101124.00;;;16.61;100.00
11114;BME280;5610;52.154;9.198;2022-07-15T00:35:48;101131.69;;;16.55;100.00
11114;BME280;5610;52.154;9.198;2022-07-15T00:38:33;101134.66;;;16.52;100.00
11114;BME280;5610;52.154;9.198;2022-07-15T00:41:19;101135.63;;;16.51;100.00
11114;BME280;5610;52.154;9.198;2022-07-15T00:44:06;101136.81;;;16.46;100.00
11114;BME280;5610;52.154;9.198;2022-07-15T00:46:52;101139.00;;;16.41;100.00
11114;BME280;5610;52.154;9.198;2022-07-15T00:49:37;101143.66;;;16.39;100.00
11114;BME280;5610;52.154;9.198;2022-07-15T00:52:22;101136.81;;;16.35;100.00
11114;BME280;5610;52.154;9.198;2022-07-15T00:55:12;101146.69;;;16.35;100.00
11114;BME280;5610;52.154;9.198;2022-07-15T00:58:01;101146.47;;;16.38;100.00
11114;BME280;5610;52.154;9.198;2022-07-15T01:00:50;101137.19;;;16.42;100.00
11114;BME280;5610;52.154;9.198;2022-07-15T01:03:35;101135.97;;;16.46;100.00
11114;BME280;5610;52.154;9.198;2022-07-15T01:06:20;101132.06;;;16.50;100.00
11114;BME280;5610;52.154;9.198;2022-07-15T01:09:06;101134.66;;;16.52;100.00
11114;BME280;5610;52.154;9.198;2022-07-15T01:11:51;101133.31;;;16.57;100.00
11114;BME280;5610;52.154;9.198;2022-07-15T01:14:37;101131.84;;;16.64;100.00
11114;BME280;5610;52.154;9.198;2022-07-15T01:17:24;101129.75;;;16.68;100.00
11114;BME280;5610;52.154;9.198;2022-07-15T01:20:10;101132.00;;;16.74;100.00
11114;BME280;5610;52.154;9.198;2022-07-15T01:23:08;101136.03;;;16.80;100.00
11114;BME280;5610;52.154;9.198;2022-07-15T01:25:58;101145.69;;;16.82;100.00
11114;BME280;5610;52.154;9.198;2022-07-15T01:28:43;101142.88;;;16.84;100.00
11114;BME280;5610;52.154;9.198;2022-07-15T01:31:29;101149.38;;;16.81;100.00
11114;BME280;5610;52.154;9.198;2022-07-15T01:34:18;101149.72;;;16.88;100.00
11114;BME280;5610;52.154;9.198;2022-07-15T01:37:04;101151.44;;;16.89;100.00
11114;BME280;5610;52.154;9.198;2022-07-15T01:39:54;101150.22;;;16.93;100.00
11114;BME280;5610;52.154;9.198;2022-07-15T01:42:39;101152.53;;;16.97;100.00
11114;BME280;5610;52.154;9.198;2022-07-15T01:45:24;101155.84;;;17.01;100.00
11114;BME280;5610;52.154;9.198;2022-07-15T01:48:11;101158.41;;;17.02;100.00
11114;BME280;5610;52.154;9.198;2022-07-15T01:51:49;101160.75;;;16.96;100.00
11114;BME280;5610;52.154;9.198;2022-07-15T01:54:34;101156.34;;;16.95;100.00
11114;BME280;5610;52.154;9.198;2022-07-15T01:57:22;101164.16;;;16.98;100.00
11114;BME280;5610;52.154;9.198;2022-07-15T02:00:12;101156.56;;;17.03;100.00
11114;BME280;5610;52.154;9.198;2022-07-15T02:03:04;101165.38;;;17.05;100.00
11114;BME280;5610;52.154;9.198;2022-07-15T02:05:52;101168.69;;;17.09;100.00
11114;BME280;5610;52.154;9.198;2022-07-15T02:08:39;101168.44;;;17.12;100.00
11114;BME280;5610;52.154;9.198;2022-07-15T02:11:28;101176.50;;;17.12;100.00
11114;BME280;5610;52.154;9.198;2022-07-15T02:14:15;101174.81;;;17.11;100.00
11114;BME280;5610;52.154;9.198;2022-07-15T02:17:02;101170.41;;;17.10;100.00
11114;BME280;5610;52.154;9.198;2022-07-15T02:19:51;101165.00;;;17.10;100.00
11114;BME280;5610;52.154;9.198;2022-07-15T02:22:37;101167.97;;;17.07;100.00
11114;BME280;5610;52.154;9.198;2022-07-15T02:25:22;101168.69;;;16.97;100.00
11114;BME280;5610;52.154;9.198;2022-07-15T02:28:10;101162.94;;;16.91;100.00
11114;BME280;5610;52.154;9.198;2022-07-15T02:30:57;101174.69;;;16.79;100.00
11114;BME280;5610;52.154;9.198;2022-07-15T02:33:42;101171.81;;;16.69;100.00
11114;BME280;5610;52.154;9.198;2022-07-15T02:36:27;101179.03;;;16.57;100.00
11114;BME280;5610;52.154;9.198;2022-07-15T02:39:13;101179.13;;;16.44;100.00
11114;BME280;5610;52.154;9.198;2022-07-15T02:42:00;101177.50;;;16.31;100.00
11114;BME280;5610;52.154;9.198;2022-07-15T02:44:46;101174.78;;;16.19;100.00
11114;BME280;5610;52.154;9.198;2022-07-15T02:47:33;101194.56;;;16.07;100.00
11114;BME280;5610;52.154;9.198;2022-07-15T02:50:21;101195.34;;;15.97;100.00
11114;BME280;5610;52.154;9.198;2022-07-15T02:53:08;101188.97;;;15.86;100.00
11114;BME280;5610;52.154;9.198;2022-07-15T02:55:57;101190.50;;;15.78;100.00
11114;BME280;5610;52.154;9.198;2022-07-15T02:58:43;101182.28;;;15.68;100.00
11114;BME280;5610;52.154;9.198;2022-07-15T03:01:29;101191.97;;;15.58;100.00
11114;BME280;5610;52.154;9.198;2022-07-15T03:04:17;101185.66;;;15.46;100.00
11114;BME280;5610;52.154;9.198;2022-07-15T03:07:03;101196.97;;;15.38;100.00
11114;BME280;5610;52.154;9.198;2022-07-15T03:09:48;101195.91;;;15.28;100.00
11114;BME280;5610;52.154;9.198;2022-07-15T03:12:33;101196.38;;;15.22;100.00
11114;BME280;5610;52.154;9.198;2022-07-15T03:15:19;101199.50;;;15.16;100.00
11114;BME280;5610;52.154;9.198;2022-07-15T03:18:05;101200.25;;;15.05;100.00
11114;BME280;5610;52.154;9.198;2022-07-15T03:20:51;101205.94;;;15.01;100.00
11114;BME280;5610;52.154;9.198;2022-07-15T03:23:36;101202.84;;;14.94;100.00
11114;BME280;5610;52.154;9.198;2022-07-15T03:26:22;101209.38;;;14.90;100.00
11114;BME280;5610;52.154;9.198;2022-07-15T03:29:08;101206.16;;;14.85;100.00
11114;BME280;5610;52.154;9.198;2022-07-15T03:31:57;101208.84;;;14.85;100.00
11114;BME280;5610;52.154;9.198;2022-07-15T03:34:43;101205.09;;;14.88;100.00
11114;BME280;5610;52.154;9.198;2022-07-15T03:37:30;101210.13;;;14.92;100.00
11114;BME280;5610;52.154;9.198;2022-07-15T03:40:16;101204.56;;;14.95;100.00
11114;BME280;5610;52.154;9.198;2022-07-15T03:43:02;101204.00;;;15.03;100.00
11114;BME280;5610;52.154;9.198;2022-07-15T03:45:50;101213.47;;;15.08;100.00
11114;BME280;5610;52.154;9.198;2022-07-15T03:48:37;101219.13;;;15.17;100.00
11114;BME280;5610;52.154;9.198;2022-07-15T03:51:22;101219.63;;;15.22;100.00
11114;BME280;5610;52.154;9.198;2022-07-15T03:54:10;101226.28;;;15.29;100.00
11114;BME280;5610;52.154;9.198;2022-07-15T03:56:55;101224.13;;;15.34;100.00
11114;BME280;5610;52.154;9.198;2022-07-15T03:59:41;101221.25;;;15.37;100.00
11114;BME280;5610;52.154;9.198;2022-07-15T04:02:27;101223.69;;;15.40;100.00
11114;BME280;5610;52.154;9.198;2022-07-15T04:05:15;101221.75;;;15.42;100.00
11114;BME280;5610;52.154;9.198;2022-07-15T04:08:01;101219.72;;;15.46;100.00
11114;BME280;5610;52.154;9.198;2022-07-15T04:10:48;101224.00;;;15.48;100.00
11114;BME280;5610;52.154;9.198;2022-07-15T04:13:33;101221.44;;;15.47;100.00
11114;BME280;5610;52.154;9.198;2022-07-15T04:16:19;101226.38;;;15.40;100.00
11114;BME280;5610;52.154;9.198;2022-07-15T04:19:06;101225.00;;;15.34;100.00
11114;BME280;5610;52.154;9.198;2022-07-15T04:21:52;101218.22;;;15.29;100.00
11114;BME280;5610;52.154;9.198;2022-07-15T04:24:38;101223.84;;;15.26;100.00
11114;BME280;5610;52.154;9.198;2022-07-15T04:27:28;101232.22;;;15.21;100.00
11114;BME280;5610;52.154;9.198;2022-07-15T04:30:14;101233.41;;;15.17;100.00
11114;BME280;5610;52.154;9.198;2022-07-15T04:33:05;101235.56;;;15.12;100.00
11114;BME280;5610;52.154;9.198;2022-07-15T04:35:52;101234.28;;;15.05;100.00
11114;BME280;5610;52.154;9.198;2022-07-15T04:38:38;101233.72;;;15.00;100.00
11114;BME280;5610;52.154;9.198;2022-07-15T04:41:23;101245.44;;;14.99;100.00
11114;BME280;5610;52.154;9.198;2022-07-15T04:44:10;101239.09;;;15.00;100.00
11114;BME280;5610;52.154;9.198;2022-07-15T04:46:56;101244.59;;;14.98;100.00
11114;BME280;5610;52.154;9.198;2022-07-15T04:49:49;101248.97;;;14.99;100.00
11114;BME280;5610;52.154;9.198;2022-07-15T04:52:53;101247.38;;;15.09;100.00
11114;BME280;5610;52.154;9.198;2022-07-15T04:55:40;101256.78;;;15.28;100.00
11114;BME280;5610;52.154;9.198;2022-07-15T04:58:25;101254.41;;;15.49;100.00
11114;BME280;5610;52.154;9.198;2022-07-15T05:01:11;101250.28;;;15.69;100.00
11114;BME280;5610;52.154;9.198;2022-07-15T05:03:57;101253.34;;;15.88;100.00
11114;BME280;5610;52.154;9.198;2022-07-15T05:06:43;101246.59;;;16.06;100.00
11114;BME280;5610;52.154;9.198;2022-07-15T05:09:28;101252.53;;;16.23;100.00
11114;BME280;5610;52.154;9.198;2022-07-15T05:12:14;101252.56;;;16.34;100.00
11114;BME280;5610;52.154;9.198;2022-07-15T05:15:09;101263.59;;;16.42;100.00
11114;BME280;5610;52.154;9.198;2022-07-15T05:17:59;101256.78;;;16.49;100.00
11114;BME280;5610;52.154;9.198;2022-07-15T05:20:45;101261.47;;;16.58;100.00
11114;BME280;5610;52.154;9.198;2022-07-15T05:23:33;101267.66;;;16.71;100.00
11114;BME280;5610;52.154;9.198;2022-07-15T05:26:22;101264.13;;;16.82;100.00
11114;BME280;5610;52.154;9.198;2022-07-15T05:29:07;101261.19;;;16.96;100.00
11114;BME280;5610;52.154;9.198;2022-07-15T05:31:53;101263.06;;;17.07;100.00
11114;BME280;5610;52.154;9.198;2022-07-15T05:34:40;101269.41;;;17.17;100.00
11114;BME280;5610;52.154;9.198;2022-07-15T05:37:27;101270.28;;;17.29;100.00
11114;BME280;5610;52.154;9.198;2022-07-15T05:40:13;101266.38;;;17.22;100.00
11114;BME280;5610;52.154;9.198;2022-07-15T05:43:05;101268.19;;;17.44;100.00
11114;BME280;5610;52.154;9.198;2022-07-15T05:45:53;101264.13;;;17.61;100.00
11114;BME280;5610;52.154;9.198;2022-07-15T05:48:41;101272.59;;;17.78;100.00
11114;BME280;5610;52.154;9.198;2022-07-15T05:51:27;101272.31;;;17.93;100.00
11114;BME280;5610;52.154;9.198;2022-07-15T05:54:16;101279.88;;;18.10;100.00
11114;BME280;5610;52.154;9.198;2022-07-15T05:57:03;101268.69;;;18.26;100.00
11114;BME280;5610;52.154;9.198;2022-07-15T05:59:49;101271.91;;;18.41;100.00
11114;BME280;5610;52.154;9.198;2022-07-15T06:02:35;101284.75;;;18.48;100.00
11114;BME280;5610;52.154;9.198;2022-07-15T06:05:20;101276.72;;;18.58;96.59
11114;BME280;5610;52.154;9.198;2022-07-15T06:08:11;101279.75;;;18.64;95.36
11114;BME280;5610;52.154;9.198;2022-07-15T06:11:01;101275.91;;;18.78;95.12
11114;BME280;5610;52.154;9.198;2022-07-15T06:13:46;101272.72;;;18.94;93.73
11114;BME280;5610;52.154;9.198;2022-07-15T06:16:32;101283.06;;;19.10;93.47
11114;BME280;5610;52.154;9.198;2022-07-15T06:19:18;101288.16;;;19.03;89.13
11114;BME280;5610;52.154;9.198;2022-07-15T06:22:03;101289.78;;;19.15;90.09
11114;BME280;5610;52.154;9.198;2022-07-15T06:24:50;101282.72;;;19.24;90.56
11114;BME280;5610;52.154;9.198;2022-07-15T06:27:37;101291.19;;;19.40;86.92
11114;BME280;5610;52.154;9.198;2022-07-15T06:30:23;101291.66;;;19.45;87.65
11114;BME280;5610;52.154;9.198;2022-07-15T06:33:08;101290.16;;;19.62;85.59
11114;BME280;5610;52.154;9.198;2022-07-15T06:35:53;101299.34;;;19.81;83.63
11114;BME280;5610;52.154;9.198;2022-07-15T06:38:39;101292.66;;;19.94;82.67
11114;BME280;5610;52.154;9.198;2022-07-15T06:41:26;101292.13;;;20.10;82.72
11114;BME280;5610;52.154;9.198;2022-07-15T06:44:12;101297.56;;;20.20;81.83
11114;BME280;5610;52.154;9.198;2022-07-15T06:47:02;101293.44;;;20.16;80.35
11114;BME280;5610;52.154;9.198;2022-07-15T06:49:50;101293.88;;;20.30;79.80
11114;BME280;5610;52.154;9.198;2022-07-15T06:52:36;101301.13;;;20.40;79.72
11114;BME280;5610;52.154;9.198;2022-07-15T06:55:23;101301.69;;;20.43;78.55
11114;BME280;5610;52.154;9.198;2022-07-15T06:58:10;101295.56;;;20.32;79.23
11114;BME280;5610;52.154;9.198;2022-07-15T07:00:55;101299.25;;;20.21;78.49
11114;BME280;5610;52.154;9.198;2022-07-15T07:03:41;101305.94;;;20.36;78.37
11114;BME280;5610;52.154;9.198;2022-07-15T07:06:26;101303.16;;;20.47;77.87
11114;BME280;5610;52.154;9.198;2022-07-15T07:09:11;101294.06;;;20.58;75.89
11114;BME280;5610;52.154;9.198;2022-07-15T07:11:57;101292.16;;;20.78;76.09
11114;BME280;5610;52.154;9.198;2022-07-15T07:14:43;101292.84;;;20.90;73.68
11114;BME280;5610;52.154;9.198;2022-07-15T07:17:28;101290.16;;;20.90;72.02
11114;BME280;5610;52.154;9.198;2022-07-15T07:20:14;101296.38;;;21.00;72.92
11114;BME280;5610;52.154;9.198;2022-07-15T07:22:59;101293.22;;;21.14;71.88
11114;BME280;5610;52.154;9.198;2022-07-15T07:25:44;101290.81;;;21.11;71.08
11114;BME280;5610;52.154;9.198;2022-07-15T07:28:29;101290.81;;;21.11;69.40
11114;BME280;5610;52.154;9.198;2022-07-15T07:31:16;101284.25;;;21.04;70.53
11114;BME280;5610;52.154;9.198;2022-07-15T07:34:01;101295.06;;;21.13;70.12
11114;BME280;5610;52.154;9.198;2022-07-15T07:36:47;101287.09;;;21.12;68.48
11114;BME280;5610;52.154;9.198;2022-07-15T07:39:33;101291.50;;;21.13;67.51
11114;BME280;5610;52.154;9.198;2022-07-15T07:42:18;101287.56;;;20.98;67.91
11114;BME280;5610;52.154;9.198;2022-07-15T07:45:05;101294.84;;;20.78;68.68
11114;BME280;5610;52.154;9.198;2022-07-15T07:47:52;101293.19;;;20.48;70.82
11114;BME280;5610;52.154;9.198;2022-07-15T07:50:37;101291.78;;;19.84;71.99
11114;BME280;5610;52.154;9.198;2022-07-15T07:53:23;101292.28;;;19.59;73.06
11114;BME280;5610;52.154;9.198;2022-07-15T07:56:08;101292.81;;;19.53;75.13
11114;BME280;5610;52.154;9.198;2022-07-15T07:58:54;101293.16;;;19.59;77.22
11114;BME280;5610;52.154;9.198;2022-07-15T08:01:39;101292.94;;;19.82;76.52
11114;BME280;5610;52.154;9.198;2022-07-15T08:04:26;101299.53;;;20.18;72.90
11114;BME280;5610;52.154;9.198;2022-07-15T08:07:12;101293.63;;;20.53;72.98
11114;BME280;5610;52.154;9.198;2022-07-15T08:09:57;101284.41;;;20.93;68.05
11114;BME280;5610;52.154;9.198;2022-07-15T08:12:42;101285.38;;;21.58;66.13
11114;BME280;5610;52.154;9.198;2022-07-15T08:15:27;101293.47;;;21.95;63.88
11114;BME280;5610;52.154;9.198;2022-07-15T08:18:13;101289.28;;;22.28;59.70
11114;BME280;5610;52.154;9.198;2022-07-15T08:21:00;101289.47;;;22.17;62.40
11114;BME280;5610;52.154;9.198;2022-07-15T08:23:47;101280.41;;;22.08;61.22
11114;BME280;5610;52.154;9.198;2022-07-15T08:26:32;101287.19;;;21.94;59.63
11114;BME280;5610;52.154;9.198;2022-07-15T08:29:19;101281.94;;;21.83;60.36
11114;BME280;5610;52.154;9.198;2022-07-15T08:32:05;101277.22;;;22.31;58.85
11114;BME280;5610;52.154;9.198;2022-07-15T08:34:51;101278.41;;;22.90;59.07
11114;BME280;5610;52.154;9.198;2022-07-15T08:37:37;101273.75;;;23.26;55.96
11114;BME280;5610;52.154;9.198;2022-07-15T08:40:23;101281.13;;;23.76;52.55
11114;BME280;5610;52.154;9.198;2022-07-15T08:43:10;101274.22;;;23.90;47.90
11114;BME280;5610;52.154;9.198;2022-07-15T08:45:56;101275.56;;;23.94;46.60
11114;BME280;5610;52.154;9.198;2022-07-15T08:48:46;101275.91;;;23.82;45.90
11114;BME280;5610;52.154;9.198;2022-07-15T08:51:35;101278.63;;;23.91;47.91
11114;BME280;5610;52.154;9.198;2022-07-15T08:54:23;101279.00;;;24.04;48.22
11114;BME280;5610;52.154;9.198;2022-07-15T08:57:09;101279.31;;;23.58;49.17
11114;BME280;5610;52.154;9.198;2022-07-15T08:59:54;101289.19;;;23.94;47.91
11114;BME280;5610;52.154;9.198;2022-07-15T09:02:39;101290.00;;;23.86;47.82
11114;BME280;5610;52.154;9.198;2022-07-15T09:05:27;101289.09;;;23.61;49.20
11114;BME280;5610;52.154;9.198;2022-07-15T09:08:14;101288.53;;;23.32;50.53
11114;BME280;5610;52.154;9.198;2022-07-15T09:11:02;101295.16;;;23.03;50.95
11114;BME280;5610;52.154;9.198;2022-07-15T09:13:49;101297.97;;;22.75;51.69
11114;BME280;5610;52.154;9.198;2022-07-15T09:16:34;101298.47;;;22.53;51.29
11114;BME280;5610;52.154;9.198;2022-07-15T09:19:19;101305.78;;;22.35;51.97
11114;BME280;5610;52.154;9.198;2022-07-15T09:22:05;101304.75;;;22.18;52.25
11114;BME280;5610;52.154;9.198;2022-07-15T09:25:01;101310.38;;;22.07;52.21
11114;BME280;5610;52.154;9.198;2022-07-15T09:27:49;101305.56;;;22.28;52.40
11114;BME280;5610;52.154;9.198;2022-07-15T09:30:36;101306.56;;;22.45;51.38
11114;BME280;5610;52.154;9.198;2022-07-15T09:33:40;101314.56;;;22.64;51.66
11114;BME280;5610;52.154;9.198;2022-07-15T09:36:30;101306.94;;;22.86;51.65
11114;BME280;5610;52.154;9.198;2022-07-15T09:39:15;101302.50;;;23.37;50.36
11114;BME280;5610;52.154;9.198;2022-07-15T09:42:05;101293.28;;;23.90;50.26
11114;BME280;5610;52.154;9.198;2022-07-15T09:44:52;101305.59;;;24.26;49.92
11114;BME280;5610;52.154;9.198;2022-07-15T09:47:37;101308.72;;;24.97;48.05
11114;BME280;5610;52.154;9.198;2022-07-15T09:50:33;101295.59;;;25.80;46.84
11114;BME280;5610;52.154;9.198;2022-07-15T09:53:18;101295.78;;;26.55;46.05
11114;BME280;5610;52.154;9.198;2022-07-15T09:56:05;101288.81;;;26.91;43.94
11114;BME280;5610;52.154;9.198;2022-07-15T09:58:52;101294.94;;;27.16;43.33
11114;BME280;5610;52.154;9.198;2022-07-15T10:01:39;101294.19;;;27.22;42.53
11114;BME280;5610;52.154;9.198;2022-07-15T10:04:27;101293.16;;;27.08;42.88
11114;BME280;5610;52.154;9.198;2022-07-15T10:07:13;101295.88;;;27.08;43.58
11114;BME280;5610;52.154;9.198;2022-07-15T10:09:58;101296.09;;;27.21;42.97
11114;BME280;5610;52.154;9.198;2022-07-15T10:12:53;101302.50;;;27.28;42.66
11114;BME280;5610;52.154;9.198;2022-07-15T10:15:45;101294.31;;;27.28;41.84
11114;BME280;5610;52.154;9.198;2022-07-15T10:18:44;101297.28;;;27.48;42.64
11114;BME280;5610;52.154;9.198;2022-07-15T10:21:37;101295.59;;;27.77;41.73
11114;BME280;5610;52.154;9.198;2022-07-15T10:24:34;101293.16;;;27.82;40.62
11114;BME280;5610;52.154;9.198;2022-07-15T10:27:33;101292.50;;;27.80;40.43
11114;BME280;5610;52.154;9.198;2022-07-15T10:30:23;101304.22;;;27.74;41.38
11114;BME280;5610;52.154;9.198;2022-07-15T10:33:11;101291.00;;;27.77;40.91
11114;BME280;5610;52.154;9.198;2022-07-15T10:36:05;101297.78;;;27.37;41.49
11114;BME280;5610;52.154;9.198;2022-07-15T10:39:02;101295.03;;;27.07;41.77
11114;BME280;5610;52.154;9.198;2022-07-15T10:41:51;101294.47;;;27.27;42.67
11114;BME280;5610;52.154;9.198;2022-07-15T10:44:49;101295.25;;;27.35;41.93
11114;BME280;5610;52.154;9.198;2022-07-15T10:47:34;101292.03;;;27.32;42.06
11114;BME280;5610;52.154;9.198;2022-07-15T10:50:36;101291.47;;;27.22;41.52
11114;BME280;5610;52.154;9.198;2022-07-15T10:53:25;101295.13;;;27.14;42.03
11114;BME280;5610;52.154;9.198;2022-07-15T10:56:28;101286.91;;;26.76;41.53
11114;BME280;5610;52.154;9.198;2022-07-15T10:59:16;101281.81;;;27.11;42.52
11114;BME280;5610;52.154;9.198;2022-07-15T11:02:15;101292.97;;;27.54;41.59
11114;BME280;5610;52.154;9.198;2022-07-15T11:05:17;101280.16;;;28.41;40.18
11114;BME280;5610;52.154;9.198;2022-07-15T11:11:50;101269.47;;;31.46;36.07
11114;BME280;5610;52.154;9.198;2022-07-15T11:14:44;101267.22;;;34.82;32.58
11114;BME280;5610;52.154;9.198;2022-07-15T11:17:38;101264.09;;;37.35;29.52
11114;BME280;5610;52.154;9.198;2022-07-15T11:20:29;101259.69;;;39.01;26.93
11114;BME280;5610;52.154;9.198;2022-07-15T11:23:14;101257.47;;;40.75;25.38
11114;BME280;5610;52.154;9.198;2022-07-15T11:26:01;101244.66;;;41.74;24.60
11114;BME280;5610;52.154;9.198;2022-07-15T11:28:49;101248.63;;;42.46;23.54
11114;BME280;5610;52.154;9.198;2022-07-15T11:31:39;101237.78;;;44.07;22.81
11114;BME280;5610;52.154;9.198;2022-07-15T11:34:24;101231.09;;;44.03;22.02
11114;BME280;5610;52.154;9.198;2022-07-15T11:37:12;101228.66;;;44.67;21.49
11114;BME280;5610;52.154;9.198;2022-07-15T11:40:09;101219.66;;;42.61;22.69
11114;BME280;5610;52.154;9.198;2022-07-15T11:42:55;101223.56;;;39.17;25.37
11114;BME280;5610;52.154;9.198;2022-07-15T11:46:00;101230.69;;;35.44;27.70
11114;BME280;5610;52.154;9.198;2022-07-15T11:48:45;101234.31;;;32.80;30.46
11114;BME280;5610;52.154;9.198;2022-07-15T11:51:31;101228.28;;;30.66;32.76
11114;BME280;5610;52.154;9.198;2022-07-15T11:54:17;101231.44;;;28.93;35.08
11114;BME280;5610;52.154;9.198;2022-07-15T11:57:05;101229.22;;;27.60;37.09
11114;BME280;5610;52.154;9.198;2022-07-15T11:59:53;101238.31;;;26.64;38.99
11114;BME280;5610;52.154;9.198;2022-07-15T12:02:39;101238.91;;;25.82;40.17
11114;BME280;5610;52.154;9.198;2022-07-15T12:05:25;101239.84;;;25.19;41.82
11114;BME280;5610;52.154;9.198;2022-07-15T12:08:10;101239.06;;;24.70;43.35
11114;BME280;5610;52.154;9.198;2022-07-15T12:10:55;101248.78;;;24.48;43.69
11114;BME280;5610;52.154;9.198;2022-07-15T12:13:42;101242.13;;;24.50;44.04
11114;BME280;5610;52.154;9.198;2022-07-15T12:16:30;101242.84;;;24.60;44.62
11114;BME280;5610;52.154;9.198;2022-07-15T12:19:19;101236.66;;;24.83;44.59
11114;BME280;5610;52.154;9.198;2022-07-15T12:22:06;101238.50;;;24.99;44.34
11114;BME280;5610;52.154;9.198;2022-07-15T12:24:51;101231.69;;;25.03;44.30
11114;BME280;5610;52.154;9.198;2022-07-15T12:27:37;101235.09;;;24.97;45.25
11114;BME280;5610;52.154;9.198;2022-07-15T12:30:30;101235.97;;;25.05;44.40
11114;BME280;5610;52.154;9.198;2022-07-15T12:33:18;101236.75;;;25.30;44.07
11114;BME280;5610;52.154;9.198;2022-07-15T12:36:17;101233.13;;;27.51;41.31
11114;BME280;5610;52.154;9.198;2022-07-15T12:39:14;101236.50;;;32.15;35.52
11114;BME280;5610;52.154;9.198;2022-07-15T12:42:03;101235.81;;;36.66;29.60
11114;BME280;5610;52.154;9.198;2022-07-15T12:45:10;101227.84;;;40.13;25.62
11114;BME280;5610;52.154;9.198;2022-07-15T12:48:00;101228.81;;;41.93;23.84
11114;BME280;5610;52.154;9.198;2022-07-15T12:50:58;101224.50;;;43.09;22.76
11114;BME280;5610;52.154;9.198;2022-07-15T12:53:45;101213.25;;;41.72;23.58
11114;BME280;5610;52.154;9.198;2022-07-15T12:56:31;101214.34;;;42.55;24.10
11114;BME280;5610;52.154;9.198;2022-07-15T12:59:16;101202.78;;;43.43;23.94
11114;BME280;5610;52.154;9.198;2022-07-15T13:02:02;101213.94;;;41.54;23.35
11114;BME280;5610;52.154;9.198;2022-07-15T13:04:47;101214.16;;;38.16;26.38
11114;BME280;5610;52.154;9.198;2022-07-15T13:07:32;101204.09;;;35.31;28.17
11114;BME280;5610;52.154;9.198;2022-07-15T13:10:20;101211.44;;;33.17;30.98
11114;BME280;5610;52.154;9.198;2022-07-15T13:13:06;101209.81;;;31.64;31.54
11114;BME280;5610;52.154;9.198;2022-07-15T13:15:51;101212.28;;;29.82;34.19
11114;BME280;5610;52.154;9.198;2022-07-15T13:18:37;101203.31;;;28.84;36.60
11114;BME280;5610;52.154;9.198;2022-07-15T13:21:22;101218.22;;;27.89;37.71
11114;BME280;5610;52.154;9.198;2022-07-15T13:24:07;101208.22;;;27.31;38.64
11114;BME280;5610;52.154;9.198;2022-07-15T13:26:54;101214.88;;;26.84;39.50
11114;BME280;5610;52.154;9.198;2022-07-15T13:29:39;101218.53;;;26.62;40.16
11114;BME280;5610;52.154;9.198;2022-07-15T13:32:24;101215.88;;;26.31;40.68
11114;BME280;5610;52.154;9.198;2022-07-15T13:35:11;101222.84;;;25.87;41.41
11114;BME280;5610;52.154;9.198;2022-07-15T13:37:56;101233.28;;;24.56;45.23
11114;BME280;5610;52.154;9.198;2022-07-15T13:40:41;101234.44;;;24.13;47.39
11114;BME280;5610;52.154;9.198;2022-07-15T13:43:28;101245.13;;;23.48;49.23
11114;BME280;5610;52.154;9.198;2022-07-15T13:46:13;101244.19;;;22.79;51.14
11114;BME280;5610;52.154;9.198;2022-07-15T13:48:58;101253.94;;;22.64;52.24
11114;BME280;5610;52.154;9.198;2022-07-15T13:51:43;101256.97;;;22.25;53.19
11114;BME280;5610;52.154;9.198;2022-07-15T13:54:28;101263.84;;;22.02;54.90
11114;BME280;5610;52.154;9.198;2022-07-15T13:57:13;101273.53;;;21.86;56.09
11114;BME280;5610;52.154;9.198;2022-07-15T14:00:00;101268.72;;;21.98;57.12
11114;BME280;5610;52.154;9.198;2022-07-15T14:02:51;101272.91;;;21.92;56.29
11114;BME280;5610;52.154;9.198;2022-07-15T14:05:36;101274.16;;;21.71;57.97
11114;BME280;5610;52.154;9.198;2022-07-15T14:08:21;101275.19;;;21.70;58.71
11114;BME280;5610;52.154;9.198;2022-07-15T14:11:07;101275.06;;;21.61;59.92
11114;BME280;5610;52.154;9.198;2022-07-15T14:13:52;101275.66;;;21.65;60.22
11114;BME280;5610;52.154;9.198;2022-07-15T14:16:39;101273.78;;;21.65;60.85
11114;BME280;5610;52.154;9.198;2022-07-15T14:19:24;101272.34;;;21.71;61.08
11114;BME280;5610;52.154;9.198;2022-07-15T14:22:09;101269.88;;;21.78;61.72
11114;BME280;5610;52.154;9.198;2022-07-15T14:24:54;101265.22;;;21.88;61.21
11114;BME280;5610;52.154;9.198;2022-07-15T14:27:40;101258.13;;;22.40;60.44
11114;BME280;5610;52.154;9.198;2022-07-15T14:30:25;101261.31;;;22.97;59.17
11114;BME280;5610;52.154;9.198;2022-07-15T14:33:12;101257.88;;;23.47;57.65
11114;BME280;5610;52.154;9.198;2022-07-15T14:35:57;101254.63;;;23.94;56.38
11114;BME280;5610;52.154;9.198;2022-07-15T14:38:42;101263.38;;;24.30;55.56
11114;BME280;5610;52.154;9.198;2022-07-15T14:41:28;101258.81;;;24.72;54.58
11114;BME280;5610;52.154;9.198;2022-07-15T14:44:13;101259.44;;;25.31;53.14
11114;BME280;5610;52.154;9.198;2022-07-15T14:46:58;101255.19;;;25.98;50.54